createdAt,value
2023-05-05T00:03:19.624Z,68.99
2023-05-05T00:13:24.020Z,68.64
2023-05-05T00:23:26.646Z,68.71
2023-05-05T00:33:30.598Z,69.36
2023-05-05T00:43:33.316Z,69.47
2023-05-05T00:53:39.612Z,70.21
2023-05-05T01:03:42.672Z,71.58
2023-05-05T01:13:58.007Z,72.18
2023-05-05T01:24:12.286Z,72.78
2023-05-05T01:34:20.201Z,72.93
2023-05-05T01:44:22.962Z,74.02
2023-05-05T01:54:28.089Z,73.69
2023-05-05T02:04:33.065Z,74.86
2023-05-05T02:14:40.087Z,75.33
2023-05-05T02:24:42.988Z,75.79
2023-05-05T02:34:50.612Z,76.34
2023-05-05T02:44:56.259Z,76.33
2023-05-05T02:55:01.178Z,77.21
2023-05-05T03:05:10.693Z,76.87
2023-05-05T03:15:15.238Z,76.66
2023-05-05T03:25:17.896Z,77.21
2023-05-05T03:35:22.978Z,76.93
2023-05-05T03:45:25.797Z,77.00
2023-05-05T03:55:29.809Z,77.18
2023-05-05T04:05:32.508Z,76.57
2023-05-05T04:15:36.670Z,77.10
2023-05-05T04:25:39.738Z,78.14
2023-05-05T04:35:43.727Z,78.37
2023-05-05T04:45:53.469Z,77.95
2023-05-05T04:55:57.458Z,77.82
2023-05-05T05:06:00.325Z,76.14
2023-05-05T05:16:04.421Z,74.41
2023-05-05T05:26:07.239Z,73.22
2023-05-05T05:36:11.304Z,74.02
2023-05-05T05:46:13.964Z,74.59
2023-05-05T05:56:17.913Z,76.72
2023-05-05T06:06:20.577Z,81.63
2023-05-05T06:16:24.724Z,85.42
2023-05-05T06:26:27.464Z,89.05
2023-05-05T06:36:32.214Z,88.54
2023-05-05T06:46:34.998Z,88.90
2023-05-05T06:56:39.034Z,90.51
2023-05-05T07:06:41.677Z,90.77
2023-05-05T07:16:46.367Z,88.77
2023-05-05T07:26:49.034Z,88.87
2023-05-05T07:36:53.030Z,88.09
2023-05-05T07:46:55.961Z,87.86
2023-05-05T07:56:59.993Z,86.96
2023-05-05T08:07:02.715Z,86.12
2023-05-05T08:17:06.974Z,85.48
2023-05-05T08:27:09.586Z,84.31
2023-05-05T08:37:13.565Z,84.03
2023-05-05T08:47:16.864Z,84.12
2023-05-05T08:57:26.712Z,83.71
2023-05-05T09:07:29.366Z,82.63
2023-05-05T09:17:33.319Z,80.20
2023-05-05T09:27:40.713Z,79.73
2023-05-05T09:37:45.016Z,80.17
2023-05-05T09:47:48.474Z,78.75
2023-05-05T09:57:52.901Z,77.07
2023-05-05T10:07:55.593Z,74.99
2023-05-05T10:18:07.834Z,71.86
2023-05-05T10:28:17.091Z,73.64
2023-05-05T10:38:24.798Z,68.58
2023-05-05T10:48:35.453Z,68.13
2023-05-05T10:58:58.331Z,67.46
2023-05-05T11:09:29.992Z,65.27
2023-05-05T11:19:48.642Z,62.95
2023-05-05T11:30:09.363Z,50.58
2023-05-05T11:40:21.756Z,33.30
2023-05-05T11:50:27.085Z,30.06
2023-05-05T12:00:33.567Z,32.34
2023-05-05T12:10:37.648Z,35.21
2023-05-05T12:20:41.669Z,38.23
2023-05-05T12:30:57.470Z,43.76
2023-05-05T12:41:00.147Z,51.79
2023-05-05T12:51:16.027Z,54.54
2023-05-05T13:01:18.699Z,56.74
2023-05-05T13:11:22.760Z,58.35
2023-05-05T13:21:26.032Z,58.35
2023-05-05T13:31:30.623Z,58.09
2023-05-05T13:41:33.321Z,58.63
2023-05-05T13:51:38.319Z,60.10
2023-05-05T14:01:41.115Z,61.20
2023-05-05T14:11:45.074Z,61.88
2023-05-05T14:21:47.813Z,64.42
2023-05-05T14:31:52.152Z,67.94
2023-05-05T14:41:54.798Z,69.50
2023-05-05T14:51:58.949Z,70.42
2023-05-05T15:02:01.845Z,73.10
2023-05-05T15:12:06.578Z,83.57
2023-05-05T15:22:09.308Z,99.90
2023-05-05T15:32:13.305Z,101.27
2023-05-05T15:42:16.058Z,104.08
2023-05-05T15:52:20.337Z,104.50
2023-05-05T16:02:23.179Z,105.38
2023-05-05T16:12:27.377Z,105.32
2023-05-05T16:22:30.511Z,106.46
2023-05-05T16:32:34.877Z,106.27
2023-05-05T16:42:37.736Z,106.32
2023-05-05T16:52:42.017Z,106.55
2023-05-05T17:02:44.641Z,106.58
2023-05-05T17:12:48.676Z,106.16
2023-05-05T17:22:51.503Z,106.29
2023-05-05T17:32:55.829Z,105.90
2023-05-05T17:42:58.602Z,105.81
2023-05-05T17:53:02.588Z,104.85
2023-05-05T18:03:05.830Z,104.72
2023-05-05T18:13:09.883Z,104.75
2023-05-05T18:23:12.770Z,104.99
2023-05-05T18:33:16.782Z,104.97
2023-05-05T18:43:19.427Z,105.01
2023-05-05T18:53:23.356Z,104.50
2023-05-05T19:03:26.045Z,104.93
2023-05-05T19:13:30.021Z,104.93
2023-05-05T19:23:33.181Z,105.34
2023-05-05T19:33:37.351Z,105.35
2023-05-05T19:43:40.242Z,105.56
2023-05-05T19:53:45.717Z,105.27
2023-05-05T20:03:48.480Z,105.86
2023-05-05T20:13:53.133Z,105.78
2023-05-05T20:23:55.836Z,105.95
2023-05-05T20:33:59.780Z,106.01
2023-05-05T20:44:03.613Z,106.11
2023-05-05T20:54:07.638Z,105.86
2023-05-05T21:04:10.337Z,106.16
2023-05-05T21:14:14.499Z,106.09
2023-05-05T21:24:17.329Z,106.96
2023-05-05T21:34:21.279Z,106.75
2023-05-05T21:44:25.408Z,106.90
2023-05-05T21:54:30.083Z,106.78
2023-05-05T22:04:32.740Z,107.02
2023-05-05T22:14:36.801Z,107.07
2023-05-05T22:24:39.404Z,106.99
2023-05-05T22:34:43.434Z,106.59
2023-05-05T22:44:46.093Z,107.01
2023-05-05T22:54:50.021Z,106.96
2023-05-05T23:04:52.701Z,107.23
2023-05-05T23:14:56.747Z,107.20
2023-05-05T23:24:59.336Z,106.95
2023-05-05T23:35:03.315Z,107.08
2023-05-05T23:45:06.669Z,107.26
2023-05-05T23:55:11.436Z,107.26
